sensor_id;sensor_type;location;lat;lon;timestamp;temperature;humidity
80779;SHT30;70170;47.856;10.956;2023-12-20T00:02:04;3.97;77.35
80779;SHT30;70170;47.856;10.956;2023-12-20T00:04:30;3.98;77.00
80779;SHT30;70170;47.856;10.956;2023-12-20T00:06:55;4.01;77.16
80779;SHT30;70170;47.856;10.956;2023-12-20T00:09:20;4.12;76.49
80779;SHT30;70170;47.856;10.956;2023-12-20T00:11:46;4.19;76.07
80779;SHT30;70170;47.856;10.956;2023-12-20T00:14:11;4.13;76.74
80779;SHT30;70170;47.856;10.956;2023-12-20T00:16:36;4.08;77.03
80779;SHT30;70170;47.856;10.956;2023-12-20T00:19:02;4.01;77.83
80779;SHT30;70170;47.856;10.956;2023-12-20T00:21:27;4.03;77.34
80779;SHT30;70170;47.856;10.956;2023-12-20T00:23:52;4.03;77.65
80779;SHT30;70170;47.856;10.956;2023-12-20T00:26:17;4.03;77.73
80779;SHT30;70170;47.856;10.956;2023-12-20T00:28:43;4.02;77.80
80779;SHT30;70170;47.856;10.956;2023-12-20T00:31:08;4.13;77.26
80779;SHT30;70170;47.856;10.956;2023-12-20T00:33:33;4.22;77.20
80779;SHT30;70170;47.856;10.956;2023-12-20T00:35:58;4.19;77.55
80779;SHT30;70170;47.856;10.956;2023-12-20T00:38:24;4.15;78.01
80779;SHT30;70170;47.856;10.956;2023-12-20T00:40:49;4.26;76.98
80779;SHT30;70170;47.856;10.956;2023-12-20T00:43:15;4.28;77.16
80779;SHT30;70170;47.856;10.956;2023-12-20T00:45:40;4.23;77.42
80779;SHT30;70170;47.856;10.956;2023-12-20T00:48:05;4.15;77.90
80779;SHT30;70170;47.856;10.956;2023-12-20T00:50:31;4.12;77.92
80779;SHT30;70170;47.856;10.956;2023-12-20T00:52:56;4.06;78.16
80779;SHT30;70170;47.856;10.956;2023-12-20T00:55:21;4.10;77.39
80779;SHT30;70170;47.856;10.956;2023-12-20T00:57:47;4.08;78.26
80779;SHT30;70170;47.856;10.956;2023-12-20T01:00:12;4.03;78.02
80779;SHT30;70170;47.856;10.956;2023-12-20T01:02:38;4.05;77.86
80779;SHT30;70170;47.856;10.956;2023-12-20T01:05:04;4.01;78.09
80779;SHT30;70170;47.856;10.956;2023-12-20T01:07:29;3.99;78.15
80779;SHT30;70170;47.856;10.956;2023-12-20T01:09:54;4.02;78.18
80779;SHT30;70170;47.856;10.956;2023-12-20T01:12:20;3.97;78.46
80779;SHT30;70170;47.856;10.956;2023-12-20T01:14:45;4.01;78.14
80779;SHT30;70170;47.856;10.956;2023-12-20T01:17:12;3.99;78.27
80779;SHT30;70170;47.856;10.956;2023-12-20T01:19:37;4.03;78.16
80779;SHT30;70170;47.856;10.956;2023-12-20T01:22:02;4.06;78.18
80779;SHT30;70170;47.856;10.956;2023-12-20T01:24:28;4.03;78.31
80779;SHT30;70170;47.856;10.956;2023-12-20T01:26:53;4.01;78.57
80779;SHT30;70170;47.856;10.956;2023-12-20T01:29:19;3.99;78.77
80779;SHT30;70170;47.856;10.956;2023-12-20T01:31:44;4.06;78.46
80779;SHT30;70170;47.856;10.956;2023-12-20T01:34:10;4.22;77.75
80779;SHT30;70170;47.856;10.956;2023-12-20T01:36:35;4.20;78.02
80779;SHT30;70170;47.856;10.956;2023-12-20T01:39:01;4.26;77.94
80779;SHT30;70170;47.856;10.956;2023-12-20T01:41:26;4.35;77.53
80779;SHT30;70170;47.856;10.956;2023-12-20T01:43:51;4.43;77.27
80779;SHT30;70170;47.856;10.956;2023-12-20T01:46:19;4.46;77.34
80779;SHT30;70170;47.856;10.956;2023-12-20T01:48:45;4.43;77.45
80779;SHT30;70170;47.856;10.956;2023-12-20T01:51:10;4.35;78.40
80779;SHT30;70170;47.856;10.956;2023-12-20T01:53:36;4.30;78.84
80779;SHT30;70170;47.856;10.956;2023-12-20T01:56:02;4.28;79.20
80779;SHT30;70170;47.856;10.956;2023-12-20T01:58:27;4.29;79.16
80779;SHT30;70170;47.856;10.956;2023-12-20T02:00:54;4.33;79.23
80779;SHT30;70170;47.856;10.956;2023-12-20T02:03:20;4.42;79.20
80779;SHT30;70170;47.856;10.956;2023-12-20T02:05:47;4.50;79.15
80779;SHT30;70170;47.856;10.956;2023-12-20T02:08:13;4.45;79.99
80779;SHT30;70170;47.856;10.956;2023-12-20T02:10:38;4.46;80.24
80779;SHT30;70170;47.856;10.956;2023-12-20T02:13:05;4.54;80.46
80779;SHT30;70170;47.856;10.956;2023-12-20T02:15:30;4.45;81.45
80779;SHT30;70170;47.856;10.956;2023-12-20T02:17:56;4.52;81.84
80779;SHT30;70170;47.856;10.956;2023-12-20T02:20:21;4.52;81.89
80779;SHT30;70170;47.856;10.956;2023-12-20T02:22:46;4.42;82.23
80779;SHT30;70170;47.856;10.956;2023-12-20T02:25:12;4.53;81.01
80779;SHT30;70170;47.856;10.956;2023-12-20T02:27:38;4.49;81.55
80779;SHT30;70170;47.856;10.956;2023-12-20T02:30:05;4.40;82.03
80779;SHT30;70170;47.856;10.956;2023-12-20T02:32:31;4.39;81.99
80779;SHT30;70170;47.856;10.956;2023-12-20T02:34:56;4.42;81.50
80779;SHT30;70170;47.856;10.956;2023-12-20T02:37:21;4.40;81.44
80779;SHT30;70170;47.856;10.956;2023-12-20T02:39:47;4.46;81.18
80779;SHT30;70170;47.856;10.956;2023-12-20T02:42:12;4.47;80.94
80779;SHT30;70170;47.856;10.956;2023-12-20T02:44:37;4.46;81.18
80779;SHT30;70170;47.856;10.956;2023-12-20T02:47:03;4.47;81.05
80779;SHT30;70170;47.856;10.956;2023-12-20T02:49:28;4.46;81.62
80779;SHT30;70170;47.856;10.956;2023-12-20T02:51:54;4.43;81.59
80779;SHT30;70170;47.856;10.956;2023-12-20T02:54:19;4.42;82.22
80779;SHT30;70170;47.856;10.956;2023-12-20T02:56:44;4.39;83.53
80779;SHT30;70170;47.856;10.956;2023-12-20T02:59:10;4.37;84.68
80779;SHT30;70170;47.856;10.956;2023-12-20T03:01:35;4.36;85.56
80779;SHT30;70170;47.856;10.956;2023-12-20T03:04:03;4.43;85.89
80779;SHT30;70170;47.856;10.956;2023-12-20T03:06:28;4.37;86.27
80779;SHT30;70170;47.856;10.956;2023-12-20T03:08:53;4.39;86.51
80779;SHT30;70170;47.856;10.956;2023-12-20T03:11:19;4.39;86.49
80779;SHT30;70170;47.856;10.956;2023-12-20T03:13:44;4.40;86.60
80779;SHT30;70170;47.856;10.956;2023-12-20T03:16:13;4.43;86.70
80779;SHT30;70170;47.856;10.956;2023-12-20T03:18:39;4.36;86.67
80779;SHT30;70170;47.856;10.956;2023-12-20T03:21:05;4.33;87.06
80779;SHT30;70170;47.856;10.956;2023-12-20T03:23:30;4.37;86.97
80779;SHT30;70170;47.856;10.956;2023-12-20T03:25:57;4.39;87.07
80779;SHT30;70170;47.856;10.956;2023-12-20T03:28:22;4.39;87.19
80779;SHT30;70170;47.856;10.956;2023-12-20T03:30:48;4.40;87.19
80779;SHT30;70170;47.856;10.956;2023-12-20T03:33:14;4.45;87.22
80779;SHT30;70170;47.856;10.956;2023-12-20T03:35:39;4.40;87.65
80779;SHT30;70170;47.856;10.956;2023-12-20T03:38:04;4.35;88.15
80779;SHT30;70170;47.856;10.956;2023-12-20T03:40:30;4.42;88.18
80779;SHT30;70170;47.856;10.956;2023-12-20T03:42:55;4.42;88.39
80779;SHT30;70170;47.856;10.956;2023-12-20T03:45:20;4.42;88.81
80779;SHT30;70170;47.856;10.956;2023-12-20T03:47:45;4.50;89.10
80779;SHT30;70170;47.856;10.956;2023-12-20T03:50:11;4.46;90.07
80779;SHT30;70170;47.856;10.956;2023-12-20T03:52:36;4.42;91.00
80779;SHT30;70170;47.856;10.956;2023-12-20T03:55:01;4.42;91.70
80779;SHT30;70170;47.856;10.956;2023-12-20T03:57:27;4.30;93.89
80779;SHT30;70170;47.856;10.956;2023-12-20T03:59:52;4.10;95.88
80779;SHT30;70170;47.856;10.956;2023-12-20T04:02:17;3.95;97.49
80779;SHT30;70170;47.856;10.956;2023-12-20T04:04:43;3.87;98.44
80779;SHT30;70170;47.856;10.956;2023-12-20T04:07:08;3.80;99.33
80779;SHT30;70170;47.856;10.956;2023-12-20T04:09:33;3.70;99.99
80779;SHT30;70170;47.856;10.956;2023-12-20T04:11:59;3.71;99.99
80779;SHT30;70170;47.856;10.956;2023-12-20T04:14:24;3.67;99.99
80779;SHT30;70170;47.856;10.956;2023-12-20T04:16:50;3.71;99.99
80779;SHT30;70170;47.856;10.956;2023-12-20T04:19:15;3.67;99.99
80779;SHT30;70170;47.856;10.956;2023-12-20T04:21:40;3.71;99.99
80779;SHT30;70170;47.856;10.956;2023-12-20T04:24:06;3.73;99.99
80779;SHT30;70170;47.856;10.956;2023-12-20T04:26:31;3.73;99.99
80779;SHT30;70170;47.856;10.956;2023-12-20T04:28:56;3.73;99.99
80779;SHT30;70170;47.856;10.956;2023-12-20T04:31:22;3.74;99.99
80779;SHT30;70170;47.856;10.956;2023-12-20T04:33:47;3.78;99.99
80779;SHT30;70170;47.856;10.956;2023-12-20T04:36:12;3.81;99.99
80779;SHT30;70170;47.856;10.956;2023-12-20T04:38:38;3.80;99.99
80779;SHT30;70170;47.856;10.956;2023-12-20T04:41:03;3.82;99.99
80779;SHT30;70170;47.856;10.956;2023-12-20T04:43:28;3.85;99.99
80779;SHT30;70170;47.856;10.956;2023-12-20T04:45:55;3.87;99.99
80779;SHT30;70170;47.856;10.956;2023-12-20T04:48:20;3.85;99.99
80779;SHT30;70170;47.856;10.956;2023-12-20T04:50:45;3.91;99.99
80779;SHT30;70170;47.856;10.956;2023-12-20T04:53:10;3.88;99.99
80779;SHT30;70170;47.856;10.956;2023-12-20T04:55:36;3.91;99.99
80779;SHT30;70170;47.856;10.956;2023-12-20T04:58:01;3.92;99.99
80779;SHT30;70170;47.856;10.956;2023-12-20T05:00:27;3.94;99.99
80779;SHT30;70170;47.856;10.956;2023-12-20T05:02:52;3.90;99.99
80779;SHT30;70170;47.856;10.956;2023-12-20T05:05:17;3.92;99.99
80779;SHT30;70170;47.856;10.956;2023-12-20T05:07:43;3.90;99.99
80779;SHT30;70170;47.856;10.956;2023-12-20T05:10:09;3.88;99.99
80779;SHT30;70170;47.856;10.956;2023-12-20T05:12:34;3.88;99.99
80779;SHT30;70170;47.856;10.956;2023-12-20T05:15:00;3.92;99.99
80779;SHT30;70170;47.856;10.956;2023-12-20T05:17:25;3.91;99.99
80779;SHT30;70170;47.856;10.956;2023-12-20T05:19:51;3.84;99.99
80779;SHT30;70170;47.856;10.956;2023-12-20T05:22:16;3.80;99.99
80779;SHT30;70170;47.856;10.956;2023-12-20T05:24:42;3.71;99.99
80779;SHT30;70170;47.856;10.956;2023-12-20T05:27:07;3.67;99.99
80779;SHT30;70170;47.856;10.956;2023-12-20T05:29:33;3.62;99.99
80779;SHT30;70170;47.856;10.956;2023-12-20T05:31:58;3.60;99.99
80779;SHT30;70170;47.856;10.956;2023-12-20T05:34:23;3.52;99.99
80779;SHT30;70170;47.856;10.956;2023-12-20T05:36:49;3.52;99.99
80779;SHT30;70170;47.856;10.956;2023-12-20T05:39:14;3.46;99.99
80779;SHT30;70170;47.856;10.956;2023-12-20T05:41:39;3.46;99.99
80779;SHT30;70170;47.856;10.956;2023-12-20T05:44:05;3.44;99.99
80779;SHT30;70170;47.856;10.956;2023-12-20T05:46:30;3.42;99.99
80779;SHT30;70170;47.856;10.956;2023-12-20T05:48:55;3.42;99.99
80779;SHT30;70170;47.856;10.956;2023-12-20T05:51:20;3.39;99.99
80779;SHT30;70170;47.856;10.956;2023-12-20T05:53:46;3.30;99.99
80779;SHT30;70170;47.856;10.956;2023-12-20T05:56:11;3.25;99.99
80779;SHT30;70170;47.856;10.956;2023-12-20T05:58:38;3.25;99.99
80779;SHT30;70170;47.856;10.956;2023-12-20T06:01:04;3.16;99.99
80779;SHT30;70170;47.856;10.956;2023-12-20T06:03:30;3.11;99.99
80779;SHT30;70170;47.856;10.956;2023-12-20T06:05:55;3.05;99.99
80779;SHT30;70170;47.856;10.956;2023-12-20T06:08:20;2.98;99.99
80779;SHT30;70170;47.856;10.956;2023-12-20T06:10:46;2.94;99.99
80779;SHT30;70170;47.856;10.956;2023-12-20T06:13:11;2.87;99.99
80779;SHT30;70170;47.856;10.956;2023-12-20T06:15:38;2.88;99.99
80779;SHT30;70170;47.856;10.956;2023-12-20T06:18:04;2.84;99.99
80779;SHT30;70170;47.856;10.956;2023-12-20T06:20:29;2.81;99.99
80779;SHT30;70170;47.856;10.956;2023-12-20T06:22:54;2.74;99.99
80779;SHT30;70170;47.856;10.956;2023-12-20T06:25:20;2.73;99.99
80779;SHT30;70170;47.856;10.956;2023-12-20T06:27:45;2.71;99.99
80779;SHT30;70170;47.856;10.956;2023-12-20T06:30:17;2.64;99.99
80779;SHT30;70170;47.856;10.956;2023-12-20T06:32:42;2.58;99.99
80779;SHT30;70170;47.856;10.956;2023-12-20T06:35:08;2.60;99.99
80779;SHT30;70170;47.856;10.956;2023-12-20T06:37:34;2.56;99.99
80779;SHT30;70170;47.856;10.956;2023-12-20T06:39:59;2.52;99.99
80779;SHT30;70170;47.856;10.956;2023-12-20T06:42:24;2.46;99.99
80779;SHT30;70170;47.856;10.956;2023-12-20T06:44:49;2.46;99.99
80779;SHT30;70170;47.856;10.956;2023-12-20T06:47:15;2.36;99.99
80779;SHT30;70170;47.856;10.956;2023-12-20T06:49:40;2.36;99.99
80779;SHT30;70170;47.856;10.956;2023-12-20T06:52:06;2.37;99.99
80779;SHT30;70170;47.856;10.956;2023-12-20T06:54:31;2.35;99.99
80779;SHT30;70170;47.856;10.956;2023-12-20T06:56:56;2.33;99.99
80779;SHT30;70170;47.856;10.956;2023-12-20T06:59:22;2.32;99.99
80779;SHT30;70170;47.856;10.956;2023-12-20T07:01:50;2.26;99.99
80779;SHT30;70170;47.856;10.956;2023-12-20T07:04:15;2.26;99.99
80779;SHT30;70170;47.856;10.956;2023-12-20T07:06:41;2.24;99.99
80779;SHT30;70170;47.856;10.956;2023-12-20T07:09:07;2.18;99.99
80779;SHT30;70170;47.856;10.956;2023-12-20T07:11:32;2.19;99.99
80779;SHT30;70170;47.856;10.956;2023-12-20T07:13:57;2.18;99.99
80779;SHT30;70170;47.856;10.956;2023-12-20T07:16:22;2.18;99.99
80779;SHT30;70170;47.856;10.956;2023-12-20T07:18:48;2.16;99.99
80779;SHT30;70170;47.856;10.956;2023-12-20T07:21:13;2.16;99.99
80779;SHT30;70170;47.856;10.956;2023-12-20T07:23:38;2.16;99.99
80779;SHT30;70170;47.856;10.956;2023-12-20T07:26:04;2.14;99.99
80779;SHT30;70170;47.856;10.956;2023-12-20T07:28:29;2.19;99.99
80779;SHT30;70170;47.856;10.956;2023-12-20T07:30:54;2.24;99.99
80779;SHT30;70170;47.856;10.956;2023-12-20T07:33:20;2.24;99.99
80779;SHT30;70170;47.856;10.956;2023-12-20T07:35:45;2.25;99.99
80779;SHT30;70170;47.856;10.956;2023-12-20T07:38:11;2.29;99.99
80779;SHT30;70170;47.856;10.956;2023-12-20T07:40:37;2.26;99.99
80779;SHT30;70170;47.856;10.956;2023-12-20T07:43:03;2.22;99.99
80779;SHT30;70170;47.856;10.956;2023-12-20T07:45:28;2.24;99.99
80779;SHT30;70170;47.856;10.956;2023-12-20T07:47:53;2.25;99.99
80779;SHT30;70170;47.856;10.956;2023-12-20T07:50:19;2.25;99.99
80779;SHT30;70170;47.856;10.956;2023-12-20T07:52:44;2.25;99.99
80779;SHT30;70170;47.856;10.956;2023-12-20T07:55:10;2.28;99.99
80779;SHT30;70170;47.856;10.956;2023-12-20T07:57:35;2.29;99.99
80779;SHT30;70170;47.856;10.956;2023-12-20T08:00:00;2.35;99.99
80779;SHT30;70170;47.856;10.956;2023-12-20T08:02:26;2.35;99.99
80779;SHT30;70170;47.856;10.956;2023-12-20T08:04:51;2.36;99.99
80779;SHT30;70170;47.856;10.956;2023-12-20T08:07:16;2.39;99.99
80779;SHT30;70170;47.856;10.956;2023-12-20T08:09:41;2.42;99.99
80779;SHT30;70170;47.856;10.956;2023-12-20T08:12:08;2.43;99.99
80779;SHT30;70170;47.856;10.956;2023-12-20T08:14:34;2.40;99.99
80779;SHT30;70170;47.856;10.956;2023-12-20T08:17:00;2.43;99.99
80779;SHT30;70170;47.856;10.956;2023-12-20T08:19:25;2.40;99.99
80779;SHT30;70170;47.856;10.956;2023-12-20T08:21:51;2.43;99.99
80779;SHT30;70170;47.856;10.956;2023-12-20T08:24:16;2.44;99.99
80779;SHT30;70170;47.856;10.956;2023-12-20T08:26:41;2.44;99.99
80779;SHT30;70170;47.856;10.956;2023-12-20T08:29:07;2.46;99.99
80779;SHT30;70170;47.856;10.956;2023-12-20T08:31:32;2.44;99.99
80779;SHT30;70170;47.856;10.956;2023-12-20T08:33:57;2.47;99.99
80779;SHT30;70170;47.856;10.956;2023-12-20T08:36:22;2.46;99.99
80779;SHT30;70170;47.856;10.956;2023-12-20T08:38:48;2.50;99.99
80779;SHT30;70170;47.856;10.956;2023-12-20T08:41:14;2.52;99.99
80779;SHT30;70170;47.856;10.956;2023-12-20T08:43:39;2.57;99.99
80779;SHT30;70170;47.856;10.956;2023-12-20T08:46:06;2.63;99.99
80779;SHT30;70170;47.856;10.956;2023-12-20T08:48:31;2.70;99.99
80779;SHT30;70170;47.856;10.956;2023-12-20T08:50:56;2.74;99.99
80779;SHT30;70170;47.856;10.956;2023-12-20T08:53:21;2.79;99.99
80779;SHT30;70170;47.856;10.956;2023-12-20T08:55:47;2.83;99.99
80779;SHT30;70170;47.856;10.956;2023-12-20T08:58:13;2.85;99.99
80779;SHT30;70170;47.856;10.956;2023-12-20T09:00:38;2.88;99.99
80779;SHT30;70170;47.856;10.956;2023-12-20T09:03:04;2.92;99.99
80779;SHT30;70170;47.856;10.956;2023-12-20T09:05:29;2.92;99.99
80779;SHT30;70170;47.856;10.956;2023-12-20T09:07:55;2.97;99.99
80779;SHT30;70170;47.856;10.956;2023-12-20T09:10:20;3.02;99.99
80779;SHT30;70170;47.856;10.956;2023-12-20T09:12:51;3.09;99.99
80779;SHT30;70170;47.856;10.956;2023-12-20T09:15:19;3.09;99.99
80779;SHT30;70170;47.856;10.956;2023-12-20T09:17:44;3.11;99.99
80779;SHT30;70170;47.856;10.956;2023-12-20T09:20:10;3.12;99.99
80779;SHT30;70170;47.856;10.956;2023-12-20T09:22:35;3.15;99.99
80779;SHT30;70170;47.856;10.956;2023-12-20T09:25:00;3.16;99.99
80779;SHT30;70170;47.856;10.956;2023-12-20T09:27:27;3.19;99.99
80779;SHT30;70170;47.856;10.956;2023-12-20T09:29:52;3.20;99.99
80779;SHT30;70170;47.856;10.956;2023-12-20T09:32:18;3.25;99.99
80779;SHT30;70170;47.856;10.956;2023-12-20T09:34:45;3.26;99.99
80779;SHT30;70170;47.856;10.956;2023-12-20T09:37:10;3.29;99.99
80779;SHT30;70170;47.856;10.956;2023-12-20T09:39:36;3.32;99.99
80779;SHT30;70170;47.856;10.956;2023-12-20T09:42:03;3.33;99.99
80779;SHT30;70170;47.856;10.956;2023-12-20T09:44:29;3.32;99.99
80779;SHT30;70170;47.856;10.956;2023-12-20T09:46:55;3.32;99.99
80779;SHT30;70170;47.856;10.956;2023-12-20T09:49:21;3.35;99.99
80779;SHT30;70170;47.856;10.956;2023-12-20T09:51:47;3.35;99.99
80779;SHT30;70170;47.856;10.956;2023-12-20T09:54:14;3.39;99.99
80779;SHT30;70170;47.856;10.956;2023-12-20T09:56:40;3.40;99.99
80779;SHT30;70170;47.856;10.956;2023-12-20T09:59:06;3.39;99.99
80779;SHT30;70170;47.856;10.956;2023-12-20T10:01:31;3.44;99.99
80779;SHT30;70170;47.856;10.956;2023-12-20T10:03:59;3.43;99.99
80779;SHT30;70170;47.856;10.956;2023-12-20T10:06:25;3.52;99.99
80779;SHT30;70170;47.856;10.956;2023-12-20T10:08:50;3.54;99.99
80779;SHT30;70170;47.856;10.956;2023-12-20T10:11:16;3.62;99.99
80779;SHT30;70170;47.856;10.956;2023-12-20T10:13:43;3.62;99.99
80779;SHT30;70170;47.856;10.956;2023-12-20T10:16:08;3.67;99.99
80779;SHT30;70170;47.856;10.956;2023-12-20T10:18:33;3.64;99.99
80779;SHT30;70170;47.856;10.956;2023-12-20T10:21:00;3.63;99.99
80779;SHT30;70170;47.856;10.956;2023-12-20T10:23:25;3.67;99.99
80779;SHT30;70170;47.856;10.956;2023-12-20T10:26:00;3.71;99.99
80779;SHT30;70170;47.856;10.956;2023-12-20T10:28:25;3.71;99.99
80779;SHT30;70170;47.856;10.956;2023-12-20T10:30:53;3.80;99.99
80779;SHT30;70170;47.856;10.956;2023-12-20T10:33:30;3.80;99.99
80779;SHT30;70170;47.856;10.956;2023-12-20T10:35:57;3.80;99.99
80779;SHT30;70170;47.856;10.956;2023-12-20T10:38:22;3.84;99.99
80779;SHT30;70170;47.856;10.956;2023-12-20T10:40:49;3.77;99.99
80779;SHT30;70170;47.856;10.956;2023-12-20T10:43:18;3.82;99.99
80779;SHT30;70170;47.856;10.956;2023-12-20T10:45:44;3.84;99.99
80779;SHT30;70170;47.856;10.956;2023-12-20T10:48:10;3.84;99.99
80779;SHT30;70170;47.856;10.956;2023-12-20T10:50:37;3.87;99.99
80779;SHT30;70170;47.856;10.956;2023-12-20T10:53:06;3.85;99.99
80779;SHT30;70170;47.856;10.956;2023-12-20T10:55:32;3.88;99.99
80779;SHT30;70170;47.856;10.956;2023-12-20T10:58:02;3.95;99.99
80779;SHT30;70170;47.856;10.956;2023-12-20T11:00:31;3.97;99.99
80779;SHT30;70170;47.856;10.956;2023-12-20T11:03:00;3.99;99.99
80779;SHT30;70170;47.856;10.956;2023-12-20T11:05:57;3.94;99.99
80779;SHT30;70170;47.856;10.956;2023-12-20T11:11:39;3.90;99.99
80779;SHT30;70170;47.856;10.956;2023-12-20T11:14:08;3.88;99.99
80779;SHT30;70170;47.856;10.956;2023-12-20T11:16:38;3.94;99.99
80779;SHT30;70170;47.856;10.956;2023-12-20T11:19:06;3.90;99.99
80779;SHT30;70170;47.856;10.956;2023-12-20T11:21:32;3.82;99.99
80779;SHT30;70170;47.856;10.956;2023-12-20T11:23:57;3.82;99.99
80779;SHT30;70170;47.856;10.956;2023-12-20T11:26:27;3.80;99.99
80779;SHT30;70170;47.856;10.956;2023-12-20T11:28:53;3.77;99.99
80779;SHT30;70170;47.856;10.956;2023-12-20T11:31:19;3.74;99.99
80779;SHT30;70170;47.856;10.956;2023-12-20T11:33:44;3.73;99.99
80779;SHT30;70170;47.856;10.956;2023-12-20T11:36:14;3.75;99.99
80779;SHT30;70170;47.856;10.956;2023-12-20T11:38:55;3.78;99.99
80779;SHT30;70170;47.856;10.956;2023-12-20T11:41:22;3.81;99.99
80779;SHT30;70170;47.856;10.956;2023-12-20T11:43:53;3.80;99.99
80779;SHT30;70170;47.856;10.956;2023-12-20T11:46:18;3.80;99.99
80779;SHT30;70170;47.856;10.956;2023-12-20T11:48:44;3.78;99.99
80779;SHT30;70170;47.856;10.956;2023-12-20T11:51:10;3.73;99.99
80779;SHT30;70170;47.856;10.956;2023-12-20T11:53:36;3.73;99.99
80779;SHT30;70170;47.856;10.956;2023-12-20T11:56:03;3.74;99.99
80779;SHT30;70170;47.856;10.956;2023-12-20T11:58:28;3.71;99.99
80779;SHT30;70170;47.856;10.956;2023-12-20T12:00:55;3.70;99.99
80779;SHT30;70170;47.856;10.956;2023-12-20T12:03:20;3.66;99.99
80779;SHT30;70170;47.856;10.956;2023-12-20T12:05:47;3.59;99.99
80779;SHT30;70170;47.856;10.956;2023-12-20T12:08:12;3.54;99.99
80779;SHT30;70170;47.856;10.956;2023-12-20T12:10:38;3.64;99.99
80779;SHT30;70170;47.856;10.956;2023-12-20T12:13:03;3.66;99.99
80779;SHT30;70170;47.856;10.956;2023-12-20T12:15:29;3.71;99.99
80779;SHT30;70170;47.856;10.956;2023-12-20T12:17:55;3.78;99.99
80779;SHT30;70170;47.856;10.956;2023-12-20T12:20:24;3.74;99.99
80779;SHT30;70170;47.856;10.956;2023-12-20T12:23:03;3.73;99.99
80779;SHT30;70170;47.856;10.956;2023-12-20T12:25:30;3.81;99.99
80779;SHT30;70170;47.856;10.956;2023-12-20T12:27:56;3.82;99.99
80779;SHT30;70170;47.856;10.956;2023-12-20T12:30:21;3.91;99.99
80779;SHT30;70170;47.856;10.956;2023-12-20T12:32:47;3.92;99.99
80779;SHT30;70170;47.856;10.956;2023-12-20T12:35:13;3.97;99.99
80779;SHT30;70170;47.856;10.956;2023-12-20T12:37:40;3.99;99.99
80779;SHT30;70170;47.856;10.956;2023-12-20T12:40:10;3.99;99.99
80779;SHT30;70170;47.856;10.956;2023-12-20T12:42:36;4.05;99.99
80779;SHT30;70170;47.856;10.956;2023-12-20T12:45:02;3.99;99.99
80779;SHT30;70170;47.856;10.956;2023-12-20T12:47:27;3.99;98.96
80779;SHT30;70170;47.856;10.956;2023-12-20T12:49:52;3.90;99.15
80779;SHT30;70170;47.856;10.956;2023-12-20T12:52:18;3.84;99.72
80779;SHT30;70170;47.856;10.956;2023-12-20T12:54:44;3.81;99.21
80779;SHT30;70170;47.856;10.956;2023-12-20T12:57:11;3.77;99.42
80779;SHT30;70170;47.856;10.956;2023-12-20T12:59:37;3.75;99.84
80779;SHT30;70170;47.856;10.956;2023-12-20T13:02:02;3.71;99.99
80779;SHT30;70170;47.856;10.956;2023-12-20T13:04:27;3.73;99.99
80779;SHT30;70170;47.856;10.956;2023-12-20T13:06:53;3.71;99.99
80779;SHT30;70170;47.856;10.956;2023-12-20T13:09:18;3.70;99.99
80779;SHT30;70170;47.856;10.956;2023-12-20T13:11:44;3.69;99.99
80779;SHT30;70170;47.856;10.956;2023-12-20T13:14:10;3.74;99.99
80779;SHT30;70170;47.856;10.956;2023-12-20T13:16:40;3.80;99.74
80779;SHT30;70170;47.856;10.956;2023-12-20T13:19:06;3.87;98.70
80779;SHT30;70170;47.856;10.956;2023-12-20T13:21:31;3.92;97.44
80779;SHT30;70170;47.856;10.956;2023-12-20T13:23:57;3.97;96.84
80779;SHT30;70170;47.856;10.956;2023-12-20T13:26:22;4.02;96.96
80779;SHT30;70170;47.856;10.956;2023-12-20T13:28:47;4.06;96.75
80779;SHT30;70170;47.856;10.956;2023-12-20T13:31:12;4.01;97.47
80779;SHT30;70170;47.856;10.956;2023-12-20T13:33:38;3.99;97.64
80779;SHT30;70170;47.856;10.956;2023-12-20T13:36:04;3.95;97.95
80779;SHT30;70170;47.856;10.956;2023-12-20T13:38:30;3.88;98.29
80779;SHT30;70170;47.856;10.956;2023-12-20T13:40:55;3.87;99.26
80779;SHT30;70170;47.856;10.956;2023-12-20T13:43:20;3.85;99.21
80779;SHT30;70170;47.856;10.956;2023-12-20T13:45:48;3.91;99.72
80779;SHT30;70170;47.856;10.956;2023-12-20T13:48:13;3.91;99.12
80779;SHT30;70170;47.856;10.956;2023-12-20T13:50:38;3.88;98.65
80779;SHT30;70170;47.856;10.956;2023-12-20T13:53:04;3.94;98.70
80779;SHT30;70170;47.856;10.956;2023-12-20T13:55:29;3.91;99.56
80779;SHT30;70170;47.856;10.956;2023-12-20T13:57:55;3.94;99.13
80779;SHT30;70170;47.856;10.956;2023-12-20T14:00:21;3.85;99.99
80779;SHT30;70170;47.856;10.956;2023-12-20T14:02:47;3.82;99.99
80779;SHT30;70170;47.856;10.956;2023-12-20T14:05:13;3.82;99.99
80779;SHT30;70170;47.856;10.956;2023-12-20T14:07:39;3.85;99.86
80779;SHT30;70170;47.856;10.956;2023-12-20T14:10:05;3.91;99.99
80779;SHT30;70170;47.856;10.956;2023-12-20T14:12:31;3.92;99.95
80779;SHT30;70170;47.856;10.956;2023-12-20T14:15:00;3.88;99.99
80779;SHT30;70170;47.856;10.956;2023-12-20T14:17:26;3.81;99.99
80779;SHT30;70170;47.856;10.956;2023-12-20T14:19:51;3.74;99.99
80779;SHT30;70170;47.856;10.956;2023-12-20T14:22:17;3.69;99.99
80779;SHT30;70170;47.856;10.956;2023-12-20T14:24:42;3.59;99.99
80779;SHT30;70170;47.856;10.956;2023-12-20T14:27:08;3.57;99.99
80779;SHT30;70170;47.856;10.956;2023-12-20T14:29:34;3.47;99.99
80779;SHT30;70170;47.856;10.956;2023-12-20T14:32:00;3.46;99.99
80779;SHT30;70170;47.856;10.956;2023-12-20T14:34:27;3.27;99.99
80779;SHT30;70170;47.856;10.956;2023-12-20T14:36:53;3.09;99.99
80779;SHT30;70170;47.856;10.956;2023-12-20T14:39:18;2.91;99.99
80779;SHT30;70170;47.856;10.956;2023-12-20T14:41:44;2.80;99.99
80779;SHT30;70170;47.856;10.956;2023-12-20T14:44:10;2.73;99.99
80779;SHT30;70170;47.856;10.956;2023-12-20T14:46:35;2.68;99.99
80779;SHT30;70170;47.856;10.956;2023-12-20T14:49:00;2.60;99.99
80779;SHT30;70170;47.856;10.956;2023-12-20T14:51:28;2.53;99.99
80779;SHT30;70170;47.856;10.956;2023-12-20T14:53:53;2.49;99.99
80779;SHT30;70170;47.856;10.956;2023-12-20T14:56:18;2.46;99.99
80779;SHT30;70170;47.856;10.956;2023-12-20T14:58:45;2.39;99.99
80779;SHT30;70170;47.856;10.956;2023-12-20T15:01:11;2.39;99.99
80779;SHT30;70170;47.856;10.956;2023-12-20T15:03:36;2.35;99.99
80779;SHT30;70170;47.856;10.956;2023-12-20T15:06:01;2.32;99.99
80779;SHT30;70170;47.856;10.956;2023-12-20T15:08:27;2.25;99.99
80779;SHT30;70170;47.856;10.956;2023-12-20T15:10:52;2.24;99.99
80779;SHT30;70170;47.856;10.956;2023-12-20T15:13:17;2.25;99.99
80779;SHT30;70170;47.856;10.956;2023-12-20T15:15:43;2.22;99.99
80779;SHT30;70170;47.856;10.956;2023-12-20T15:18:08;2.24;99.99
80779;SHT30;70170;47.856;10.956;2023-12-20T15:20:33;2.28;99.99
80779;SHT30;70170;47.856;10.956;2023-12-20T15:22:59;2.29;99.99
80779;SHT30;70170;47.856;10.956;2023-12-20T15:25:30;2.33;99.99